createdAt,value
2022-10-05T00:01:26.212Z,96.56
2022-10-05T00:07:09.519Z,96.42
2022-10-05T00:12:31.236Z,96.39
2022-10-05T00:17:53.112Z,96.25
2022-10-05T00:23:18.974Z,97.19
2022-10-05T00:28:41.398Z,96.49
2022-10-05T00:34:03.327Z,95.95
2022-10-05T00:39:25.633Z,96.47
2022-10-05T00:44:51.514Z,95.53
2022-10-05T00:50:40.616Z,95.73
2022-10-05T00:56:39.161Z,96.47
2022-10-05T01:02:20.247Z,97.08
2022-10-05T01:07:58.758Z,98.25
2022-10-05T01:13:34.677Z,97.48
2022-10-05T01:19:25.726Z,97.26
2022-10-05T01:25:14.302Z,97.88
2022-10-05T01:31:19.589Z,98.96
2022-10-05T01:37:08.487Z,98.08
2022-10-05T01:42:37.998Z,95.92
2022-10-05T01:48:07.559Z,96.18
2022-10-05T01:53:41.538Z,95.65
2022-10-05T01:59:23.216Z,94.70
2022-10-05T02:05:01.933Z,95.55
2022-10-05T02:10:28.678Z,95.29
2022-10-05T02:16:02.609Z,96.71
2022-10-05T02:21:25.521Z,98.41
2022-10-05T02:26:50.139Z,98.06
2022-10-05T02:32:19.865Z,98.41
2022-10-05T02:38:08.541Z,100.00
2022-10-05T02:43:48.528Z,100.00
2022-10-05T02:49:33.042Z,99.95
2022-10-05T02:55:19.197Z,99.90
2022-10-05T03:00:47.776Z,99.21
2022-10-05T03:06:23.031Z,99.35
2022-10-05T03:12:30.263Z,99.14
2022-10-05T03:18:30.606Z,99.19
2022-10-05T03:24:17.343Z,98.33
2022-10-05T03:29:59.417Z,97.16
2022-10-05T03:35:29.846Z,97.48
2022-10-05T03:40:58.397Z,96.99
2022-10-05T03:46:39.708Z,97.18
2022-10-05T03:52:09.166Z,96.87
2022-10-05T03:57:38.784Z,97.59
2022-10-05T04:03:12.450Z,98.49
2022-10-05T04:08:47.811Z,99.10
2022-10-05T04:14:20.392Z,100.00
2022-10-05T04:20:00.792Z,100.00
2022-10-05T04:25:31.735Z,99.82
2022-10-05T04:30:54.530Z,98.83
2022-10-05T04:36:26.612Z,98.04
2022-10-05T04:42:19.115Z,98.73
2022-10-05T04:48:20.214Z,99.18
2022-10-05T04:53:53.531Z,99.58
2022-10-05T04:59:36.338Z,100.00
2022-10-05T05:05:28.806Z,99.75
2022-10-05T05:11:24.945Z,97.85
2022-10-05T05:17:13.474Z,97.13
2022-10-05T05:22:48.737Z,97.73
2022-10-05T05:28:18.467Z,96.64
2022-10-05T05:34:06.831Z,96.57
2022-10-05T05:39:49.506Z,97.00
2022-10-05T05:45:25.699Z,99.00
2022-10-05T05:51:20.915Z,96.74
2022-10-05T05:56:53.466Z,94.51
2022-10-05T06:02:19.908Z,94.77
2022-10-05T06:07:41.966Z,94.53
2022-10-05T06:13:11.440Z,93.81
2022-10-05T06:18:34.355Z,94.69
2022-10-05T06:24:12.702Z,94.75
2022-10-05T06:29:54.383Z,96.58
2022-10-05T06:35:40.722Z,95.54
2022-10-05T06:41:47.365Z,95.53
2022-10-05T06:47:45.609Z,95.32
2022-10-05T06:53:13.433Z,96.08
2022-10-05T06:59:02.261Z,97.50
2022-10-05T07:05:12.045Z,97.04
2022-10-05T07:10:51.496Z,95.59
2022-10-05T07:16:34.595Z,95.29
2022-10-05T07:22:22.094Z,96.24
2022-10-05T07:27:55.732Z,94.82
2022-10-05T07:33:24.805Z,94.95
2022-10-05T07:39:07.767Z,95.33
2022-10-05T07:44:43.308Z,95.86
2022-10-05T07:50:29.233Z,93.08
2022-10-05T07:55:54.539Z,92.49
2022-10-05T08:01:19.194Z,90.91
2022-10-05T08:06:49.187Z,91.49
2022-10-05T08:12:26.893Z,91.90
2022-10-05T08:17:55.214Z,93.23
2022-10-05T08:23:36.333Z,92.63
2022-10-05T08:29:33.631Z,91.18
2022-10-05T08:35:03.978Z,91.16
2022-10-05T08:40:45.895Z,90.10
2022-10-05T08:46:29.641Z,90.94
2022-10-05T08:51:54.315Z,91.87
2022-10-05T08:57:24.737Z,91.00
2022-10-05T09:03:22.971Z,89.64
2022-10-05T09:08:53.735Z,88.53
2022-10-05T09:14:27.546Z,88.01
2022-10-05T09:20:17.324Z,87.28
2022-10-05T09:26:05.461Z,87.21
2022-10-05T09:31:55.491Z,86.84
2022-10-05T09:37:29.820Z,86.64
2022-10-05T09:43:29.133Z,86.48
2022-10-05T09:49:06.122Z,86.35
2022-10-05T09:55:06.544Z,86.26
2022-10-05T10:00:59.547Z,86.20
2022-10-05T10:06:51.493Z,86.53
2022-10-05T10:12:42.055Z,86.04
2022-10-05T10:18:19.140Z,85.81
2022-10-05T10:23:43.533Z,85.90
2022-10-05T10:35:25.641Z,85.56
2022-10-05T10:41:09.069Z,85.02
2022-10-05T10:47:09.053Z,84.18
2022-10-05T10:53:04.508Z,84.68
2022-10-05T10:58:48.090Z,84.73
2022-10-05T11:04:40.331Z,83.95
2022-10-05T11:10:19.722Z,81.08
2022-10-05T11:15:56.857Z,78.01
2022-10-05T11:21:36.407Z,76.68
2022-10-05T11:27:20.096Z,74.49
2022-10-05T11:33:11.262Z,76.29
2022-10-05T11:38:52.253Z,75.28
2022-10-05T11:44:38.678Z,74.93
2022-10-05T11:50:12.370Z,70.32
2022-10-05T11:55:57.618Z,70.60
2022-10-05T12:01:34.515Z,71.44
2022-10-05T12:07:02.862Z,72.90
2022-10-05T12:12:29.943Z,72.19
2022-10-05T12:18:13.428Z,71.17
2022-10-05T12:23:47.009Z,71.81
2022-10-05T12:29:20.820Z,69.80
2022-10-05T12:35:01.696Z,69.92
2022-10-05T12:40:28.218Z,69.71
2022-10-05T12:45:53.028Z,69.64
2022-10-05T12:51:42.829Z,69.46
2022-10-05T12:57:46.537Z,67.59
2022-10-05T13:03:25.554Z,60.36
2022-10-05T13:09:03.641Z,60.61
2022-10-05T13:14:51.815Z,57.13
2022-10-05T13:20:46.881Z,58.51
2022-10-05T13:26:21.810Z,56.75
2022-10-05T13:31:47.964Z,56.08
2022-10-05T13:37:39.419Z,55.44
2022-10-05T13:43:32.289Z,53.84
2022-10-05T13:49:38.995Z,54.31
2022-10-05T13:55:16.795Z,52.30
2022-10-05T14:01:00.124Z,51.03
2022-10-05T14:06:30.635Z,52.09
2022-10-05T14:12:12.778Z,53.34
2022-10-05T14:17:40.950Z,54.08
2022-10-05T14:23:18.436Z,52.03
2022-10-05T14:28:57.626Z,55.06
2022-10-05T14:34:35.955Z,58.97
2022-10-05T14:40:20.286Z,62.21
2022-10-05T14:45:55.746Z,65.14
2022-10-05T14:51:31.883Z,66.56
2022-10-05T14:57:23.141Z,67.96
2022-10-05T15:02:59.914Z,69.64
2022-10-05T15:08:27.990Z,69.81
2022-10-05T15:13:50.114Z,69.84
2022-10-05T15:19:20.913Z,70.16
2022-10-05T15:25:01.697Z,68.00
2022-10-05T15:30:24.525Z,68.54
2022-10-05T15:36:09.605Z,67.67
2022-10-05T15:41:55.182Z,67.31
2022-10-05T15:47:39.088Z,66.14
2022-10-05T15:53:16.022Z,68.79
2022-10-05T15:58:49.942Z,70.05
2022-10-05T16:04:23.220Z,67.04
2022-10-05T16:10:13.555Z,63.25
2022-10-05T16:16:12.586Z,61.53
2022-10-05T16:21:54.056Z,59.27
2022-10-05T16:27:34.639Z,57.97
2022-10-05T16:32:59.382Z,56.07
2022-10-05T16:38:27.195Z,56.84
2022-10-05T16:44:06.850Z,57.11
2022-10-05T16:49:46.215Z,57.63
2022-10-05T16:55:20.000Z,57.96
2022-10-05T17:00:58.614Z,58.76
2022-10-05T17:06:35.292Z,59.47
2022-10-05T17:12:21.271Z,59.24
2022-10-05T17:18:18.446Z,58.87
2022-10-05T17:24:20.729Z,59.31
2022-10-05T17:29:51.768Z,59.15
2022-10-05T17:35:18.732Z,59.64
2022-10-05T17:41:01.039Z,59.73
2022-10-05T17:46:44.685Z,60.31
2022-10-05T17:52:46.568Z,61.35
2022-10-05T17:58:23.924Z,63.25
2022-10-05T18:03:51.436Z,63.77
2022-10-05T18:09:22.869Z,64.46
2022-10-05T18:14:55.269Z,65.11
2022-10-05T18:20:29.532Z,68.05
2022-10-05T18:26:13.763Z,69.00
2022-10-05T18:31:59.246Z,68.55
2022-10-05T18:37:27.041Z,69.31
2022-10-05T18:43:18.084Z,68.79
2022-10-05T18:48:50.744Z,69.06
2022-10-05T18:54:40.498Z,68.36
2022-10-05T19:00:29.169Z,68.88
2022-10-05T19:05:58.690Z,69.49
2022-10-05T19:11:51.150Z,70.01
2022-10-05T19:17:25.739Z,70.29
2022-10-05T19:22:56.491Z,70.77
2022-10-05T19:28:57.740Z,71.12
2022-10-05T19:34:39.406Z,71.53
2022-10-05T19:40:16.397Z,71.89
2022-10-05T19:45:46.321Z,72.46
2022-10-05T19:51:16.149Z,72.70
2022-10-05T19:56:49.527Z,72.83
2022-10-05T20:02:15.476Z,72.84
2022-10-05T20:07:37.530Z,73.10
2022-10-05T20:13:20.537Z,73.41
2022-10-05T20:19:01.010Z,73.58
2022-10-05T20:24:25.856Z,74.60
2022-10-05T20:29:47.657Z,74.81
2022-10-05T20:35:09.489Z,75.28
2022-10-05T20:40:31.285Z,75.46
2022-10-05T20:45:53.863Z,76.26
2022-10-05T20:51:17.924Z,76.90
2022-10-05T20:56:42.564Z,77.75
2022-10-05T21:02:05.192Z,78.25
2022-10-05T21:07:26.897Z,78.26
2022-10-05T21:12:48.918Z,78.49
2022-10-05T21:18:10.600Z,78.71
2022-10-05T21:23:35.370Z,78.92
2022-10-05T21:28:58.492Z,79.03
2022-10-05T21:34:20.236Z,78.73
2022-10-05T21:39:42.289Z,78.58
2022-10-05T21:45:04.392Z,77.84
2022-10-05T21:50:26.521Z,77.43
2022-10-05T21:55:50.695Z,77.35
2022-10-05T22:01:12.803Z,76.48
2022-10-05T22:06:35.326Z,76.46
2022-10-05T22:11:57.480Z,75.59
2022-10-05T22:17:30.870Z,74.99
2022-10-05T22:22:53.898Z,75.32
2022-10-05T22:28:16.555Z,74.95
2022-10-05T22:33:39.001Z,75.41
2022-10-05T22:39:00.762Z,75.63
2022-10-05T22:44:22.684Z,74.82
2022-10-05T22:49:44.479Z,75.15
2022-10-05T22:55:06.800Z,75.33
2022-10-05T23:00:53.391Z,75.66
2022-10-05T23:06:20.895Z,76.13
2022-10-05T23:11:42.622Z,76.42
2022-10-05T23:17:04.469Z,77.38
2022-10-05T23:22:26.381Z,77.47
2022-10-05T23:27:48.096Z,78.50
2022-10-05T23:33:09.980Z,78.75
2022-10-05T23:38:32.505Z,78.62
2022-10-05T23:43:57.227Z,78.75
2022-10-05T23:49:18.927Z,78.40
2022-10-05T23:54:40.731Z,78.32
